Terminal Aerodrome Forecast
Issued by NWS

Home | Current Version | Previous Version | Text Only | Print | Product List | Glossary On
Versions: 1 2 3 4 5 6 7 8 9 10 11 12 13 14 15 16 17 18 19 20 21 22 23 24 25 26 27
000
FTUS43 KIND 030351 AAA
TAFLAF
TAF AMD
KLAF 030351Z 0304/0324 03004KT P6SM SCT025 OVC035
     FM030800 36005KT 2SM BR OVC009
     FM031400 34006KT P6SM BKN030
     FM032000 31006KT P6SM BKN060=

USA.gov is the U.S. government's official web portal to all federal, state and local government web resources and services.